createdAt,value
2023-01-13T00:01:08.280Z,24.77
2023-01-13T00:03:35.704Z,27.05
2023-01-13T00:06:03.302Z,27.13
2023-01-13T00:08:30.099Z,28.25
2023-01-13T00:10:56.870Z,34.35
2023-01-13T00:13:26.691Z,33.55
2023-01-13T00:16:01.121Z,30.23
2023-01-13T00:18:28.302Z,28.88
2023-01-13T00:21:14.332Z,31.88
2023-01-13T00:23:41.756Z,27.25
2023-01-13T00:26:11.698Z,26.08
2023-01-13T00:28:38.772Z,38.60
2023-01-13T00:33:40.480Z,39.83
2023-01-13T00:36:10.619Z,43.08
2023-01-13T00:38:38.889Z,38.42
2023-01-13T00:41:08.051Z,39.63
2023-01-13T00:43:36.349Z,36.28
2023-01-13T00:46:05.059Z,39.92
2023-01-13T00:48:32.531Z,35.17
2023-01-13T00:51:03.248Z,35.00
2023-01-13T00:53:34.676Z,36.72
2023-01-13T00:56:05.703Z,34.85
2023-01-13T00:58:34.429Z,31.23
2023-01-13T01:01:02.516Z,30.85
2023-01-13T01:03:30.282Z,34.15
2023-01-13T01:06:03.386Z,34.10
2023-01-13T01:08:30.158Z,33.88
2023-01-13T01:11:07.974Z,34.00
2023-01-13T01:13:35.545Z,33.60
2023-01-13T01:16:09.355Z,31.55
2023-01-13T01:18:38.203Z,33.08
2023-01-13T01:21:05.905Z,30.33
2023-01-13T01:23:34.231Z,31.17
2023-01-13T01:26:06.053Z,29.80
2023-01-13T01:28:34.344Z,28.40
2023-01-13T01:31:05.375Z,30.77
2023-01-13T01:33:32.100Z,29.95
2023-01-13T01:36:04.900Z,27.55
2023-01-13T01:38:31.633Z,30.70
2023-01-13T01:40:58.528Z,31.55
2023-01-13T01:44:02.551Z,29.65
2023-01-13T01:46:32.429Z,29.05
2023-01-13T01:49:19.215Z,27.33
2023-01-13T01:51:55.025Z,26.10
2023-01-13T01:54:44.634Z,27.83
2023-01-13T01:57:17.732Z,29.70
2023-01-13T01:59:44.925Z,35.40
2023-01-13T02:02:12.141Z,28.58
2023-01-13T02:04:43.202Z,34.03
2023-01-13T02:07:09.983Z,28.27
2023-01-13T02:09:36.930Z,30.52
2023-01-13T02:12:22.196Z,33.58
2023-01-13T02:14:49.053Z,34.67
2023-01-13T02:17:21.647Z,33.08
2023-01-13T02:19:54.331Z,32.72
2023-01-13T02:22:29.872Z,36.53
2023-01-13T02:25:15.426Z,37.55
2023-01-13T02:27:53.975Z,32.92
2023-01-13T02:30:51.937Z,28.70
2023-01-13T02:33:37.245Z,27.48
2023-01-13T02:36:12.933Z,30.77
2023-01-13T02:38:57.172Z,33.58
2023-01-13T02:42:17.896Z,29.92
2023-01-13T02:44:48.554Z,29.85
2023-01-13T02:47:21.850Z,27.65
2023-01-13T02:49:52.794Z,34.00
2023-01-13T02:52:39.703Z,32.03
2023-01-13T02:55:25.999Z,26.33
2023-01-13T02:57:54.631Z,27.48
2023-01-13T03:00:23.266Z,24.13
2023-01-13T03:02:50.142Z,34.53
2023-01-13T03:05:17.429Z,30.88
2023-01-13T03:07:56.971Z,27.45
2023-01-13T03:10:47.839Z,32.35
2023-01-13T03:13:36.493Z,29.42
2023-01-13T03:16:17.696Z,30.20
2023-01-13T03:18:55.727Z,33.50
2023-01-13T03:21:32.774Z,31.38
2023-01-13T03:24:27.685Z,28.58
2023-01-13T03:27:16.547Z,32.53
2023-01-13T03:29:50.461Z,32.53
2023-01-13T03:32:24.389Z,32.58
2023-01-13T03:34:55.286Z,32.92
2023-01-13T03:37:33.965Z,30.88
2023-01-13T03:40:07.544Z,31.63
2023-01-13T03:42:37.014Z,27.92
2023-01-13T03:45:14.387Z,30.13
2023-01-13T03:47:59.855Z,31.90
2023-01-13T03:50:41.021Z,26.52
2023-01-13T03:53:13.981Z,30.23
2023-01-13T03:55:47.588Z,25.98
2023-01-13T03:58:25.196Z,25.52
2023-01-13T04:01:33.637Z,26.38
2023-01-13T04:04:08.273Z,25.08
2023-01-13T04:06:49.253Z,25.25
2023-01-13T04:09:31.219Z,22.35
2023-01-13T04:12:48.846Z,22.98
2023-01-13T04:15:22.692Z,24.63
2023-01-13T04:17:50.359Z,25.30
2023-01-13T04:20:17.810Z,24.75
2023-01-13T04:22:44.557Z,25.38
2023-01-13T04:25:11.613Z,26.45
2023-01-13T04:30:06.029Z,30.58
2023-01-13T04:32:32.800Z,29.85
2023-01-13T04:34:59.519Z,29.83
2023-01-13T04:37:26.274Z,25.73
2023-01-13T04:39:53.036Z,26.30
2023-01-13T04:42:19.867Z,27.15
2023-01-13T04:44:46.579Z,24.10
2023-01-13T04:47:13.425Z,25.13
2023-01-13T04:49:40.192Z,25.08
2023-01-13T04:52:07.216Z,23.92
2023-01-13T04:54:34.000Z,23.77
2023-01-13T04:57:00.800Z,22.25
2023-01-13T04:59:27.585Z,23.05
2023-01-13T05:01:54.363Z,22.70
2023-01-13T05:04:21.390Z,21.02
2023-01-13T05:06:48.253Z,23.20
2023-01-13T05:09:15.838Z,20.42
2023-01-13T05:12:01.661Z,23.23
2023-01-13T05:14:47.207Z,22.73
2023-01-13T05:17:20.301Z,20.58
2023-01-13T05:19:47.568Z,16.85
2023-01-13T05:22:33.525Z,20.27
2023-01-13T05:25:19.069Z,19.65
2023-01-13T05:27:45.829Z,20.20
2023-01-13T05:30:12.843Z,17.58
2023-01-13T05:32:39.921Z,20.88
2023-01-13T05:35:07.010Z,20.63
2023-01-13T05:37:33.782Z,20.38
2023-01-13T05:40:19.371Z,21.35
2023-01-13T05:43:04.891Z,24.77
2023-01-13T05:45:32.125Z,22.95
2023-01-13T05:47:59.103Z,23.38
2023-01-13T05:50:25.897Z,20.77
2023-01-13T05:52:52.749Z,24.08
2023-01-13T05:55:19.622Z,23.58
2023-01-13T05:57:46.420Z,22.77
2023-01-13T06:00:13.717Z,21.20
2023-01-13T06:02:40.505Z,21.08
2023-01-13T06:05:07.848Z,22.00
2023-01-13T06:07:34.676Z,24.55
2023-01-13T06:10:09.652Z,24.70
2023-01-13T06:12:37.075Z,23.00
2023-01-13T06:15:04.089Z,22.70
2023-01-13T06:17:30.999Z,24.20
2023-01-13T06:19:57.768Z,26.48
2023-01-13T06:22:28.491Z,24.52
2023-01-13T06:24:55.467Z,29.67
2023-01-13T06:27:23.129Z,22.02
2023-01-13T06:29:50.092Z,24.27
2023-01-13T06:32:21.144Z,22.02
2023-01-13T06:34:54.212Z,30.38
2023-01-13T06:37:25.432Z,25.40
2023-01-13T06:39:58.163Z,21.70
2023-01-13T06:42:46.768Z,22.30
2023-01-13T06:45:13.984Z,25.30
2023-01-13T06:47:41.356Z,25.73
2023-01-13T06:50:08.780Z,24.60
2023-01-13T06:52:35.605Z,23.70
2023-01-13T06:55:03.038Z,21.63
2023-01-13T06:57:29.883Z,18.38
2023-01-13T06:59:56.704Z,21.65
2023-01-13T07:02:23.748Z,21.55
2023-01-13T07:07:17.204Z,21.05
2023-01-13T07:09:43.973Z,22.98
2023-01-13T07:12:11.737Z,24.98
2023-01-13T07:14:57.276Z,20.88
2023-01-13T07:17:27.065Z,23.67
2023-01-13T07:19:53.857Z,20.48
2023-01-13T07:22:20.715Z,16.13
2023-01-13T07:24:47.489Z,23.40
2023-01-13T07:27:14.264Z,20.50
2023-01-13T07:29:41.337Z,19.38
2023-01-13T07:32:08.183Z,17.60
2023-01-13T07:34:34.951Z,20.48
2023-01-13T07:37:02.009Z,17.95
2023-01-13T07:39:28.844Z,18.73
2023-01-13T07:42:14.132Z,17.40
2023-01-13T07:44:40.925Z,20.27
2023-01-13T07:47:10.391Z,20.02
2023-01-13T07:49:37.390Z,21.88
2023-01-13T07:52:04.419Z,19.15
2023-01-13T07:54:40.298Z,20.42
2023-01-13T07:57:08.214Z,18.75
2023-01-13T07:59:35.122Z,22.75
2023-01-13T08:02:02.009Z,22.13
2023-01-13T08:06:55.616Z,19.85
2023-01-13T08:09:22.442Z,19.88
2023-01-13T08:12:09.159Z,20.15
2023-01-13T08:14:36.088Z,20.85
2023-01-13T08:17:02.817Z,20.38
2023-01-13T08:19:29.529Z,26.40
2023-01-13T08:21:57.077Z,22.35
2023-01-13T08:24:23.826Z,29.52
2023-01-13T08:26:50.607Z,23.65
2023-01-13T08:29:17.512Z,22.48
2023-01-13T08:31:45.322Z,21.73
2023-01-13T08:34:12.098Z,25.00
2023-01-13T08:36:38.869Z,28.00
2023-01-13T08:39:05.624Z,25.02
2023-01-13T08:41:51.176Z,24.10
2023-01-13T08:44:17.951Z,23.35
2023-01-13T08:46:44.874Z,20.95
2023-01-13T08:49:11.822Z,23.13
2023-01-13T08:51:38.893Z,22.17
2023-01-13T08:56:35.263Z,21.05
2023-01-13T08:59:02.911Z,29.48
2023-01-13T09:01:29.889Z,29.10
2023-01-13T09:06:23.716Z,22.33
2023-01-13T09:08:50.572Z,29.90
2023-01-13T09:11:43.523Z,22.85
2023-01-13T09:14:10.381Z,29.33
2023-01-13T09:16:37.112Z,28.33
2023-01-13T09:19:03.881Z,30.33
2023-01-13T09:21:30.696Z,29.67
2023-01-13T09:23:57.488Z,28.13
2023-01-13T09:26:24.254Z,35.67
2023-01-13T09:28:51.105Z,35.25
2023-01-13T09:31:17.914Z,30.25
2023-01-13T09:34:03.293Z,33.75
2023-01-13T09:36:30.030Z,35.42
2023-01-13T09:38:56.842Z,29.45
2023-01-13T09:41:44.945Z,34.25
2023-01-13T09:44:20.051Z,30.13
2023-01-13T09:46:52.467Z,31.33
2023-01-13T09:49:26.922Z,35.25
2023-01-13T09:52:04.495Z,35.58
2023-01-13T09:54:38.579Z,30.75
2023-01-13T09:57:14.528Z,29.80
2023-01-13T09:59:42.246Z,34.15
2023-01-13T10:02:20.997Z,32.42
2023-01-13T10:05:09.760Z,37.25
2023-01-13T10:07:39.919Z,29.38
2023-01-13T10:10:15.348Z,32.15
2023-01-13T10:13:02.026Z,29.15
2023-01-13T10:15:28.766Z,31.90
2023-01-13T10:18:09.266Z,34.08
2023-01-13T10:20:50.148Z,34.55
2023-01-13T10:24:01.670Z,33.05
2023-01-13T10:29:28.018Z,38.53
2023-01-13T10:31:57.070Z,30.02
2023-01-13T10:34:25.365Z,40.67
2023-01-13T10:37:25.960Z,31.42
2023-01-13T10:39:56.481Z,34.53
2023-01-13T10:42:24.263Z,35.75
2023-01-13T10:44:54.428Z,38.42
2023-01-13T10:47:21.259Z,35.33
2023-01-13T10:50:09.648Z,34.75
2023-01-13T10:52:42.806Z,37.67
2023-01-13T10:55:25.333Z,36.08
2023-01-13T10:57:52.178Z,33.03
2023-01-13T11:00:29.498Z,36.78
2023-01-13T11:03:23.655Z,40.38
2023-01-13T11:06:00.488Z,37.13
2023-01-13T11:08:30.896Z,44.85
2023-01-13T11:10:59.568Z,40.33
2023-01-13T11:14:02.110Z,37.13
2023-01-13T11:16:29.318Z,33.90
2023-01-13T11:19:14.078Z,37.55
2023-01-13T11:21:56.099Z,36.78
2023-01-13T11:24:42.838Z,40.58
2023-01-13T11:27:21.154Z,39.45
2023-01-13T11:30:14.443Z,38.60
2023-01-13T11:33:03.161Z,33.92
2023-01-13T11:35:34.515Z,34.90
2023-01-13T11:38:31.881Z,33.95
2023-01-13T11:41:13.541Z,33.67
2023-01-13T11:43:44.564Z,35.83
2023-01-13T11:46:11.464Z,36.50
2023-01-13T11:48:42.322Z,37.05
2023-01-13T11:51:32.183Z,40.13
2023-01-13T11:54:14.041Z,29.77
2023-01-13T11:57:16.217Z,30.70
2023-01-13T12:00:01.531Z,29.02
2023-01-13T12:02:47.023Z,32.78
2023-01-13T12:05:59.560Z,29.17
2023-01-13T12:08:57.532Z,29.33
2023-01-13T12:12:13.796Z,30.08
2023-01-13T12:14:40.445Z,30.95
2023-01-13T12:17:18.491Z,27.13
2023-01-13T12:19:48.845Z,29.38
2023-01-13T12:22:28.462Z,31.63
2023-01-13T12:24:57.882Z,30.02
2023-01-13T12:27:33.203Z,31.08
2023-01-13T12:30:03.526Z,29.98
2023-01-13T12:32:36.378Z,30.33
2023-01-13T12:35:24.696Z,29.13
2023-01-13T12:38:02.721Z,29.98
2023-01-13T12:41:07.944Z,30.33
2023-01-13T12:43:55.451Z,32.60
2023-01-13T12:46:22.136Z,30.75
2023-01-13T12:48:50.835Z,31.67
2023-01-13T12:51:28.388Z,27.95
2023-01-13T12:53:56.522Z,29.52
2023-01-13T12:56:38.905Z,30.92
2023-01-13T12:59:18.874Z,27.30
2023-01-13T13:02:09.728Z,30.27
2023-01-13T13:04:52.312Z,26.33
2023-01-13T13:07:26.634Z,27.73
2023-01-13T13:10:16.339Z,27.50
2023-01-13T13:13:01.499Z,24.98
2023-01-13T13:15:34.146Z,27.73
2023-01-13T13:18:23.894Z,30.17
2023-01-13T13:21:09.142Z,22.27
2023-01-13T13:23:47.941Z,26.60
2023-01-13T13:26:26.401Z,25.40
2023-01-13T13:29:11.847Z,23.77
2023-01-13T13:31:44.769Z,21.80
2023-01-13T13:34:24.934Z,26.10
2023-01-13T13:37:28.333Z,24.55
2023-01-13T13:40:13.990Z,23.98
2023-01-13T13:43:07.148Z,25.42
2023-01-13T13:45:52.750Z,21.05
2023-01-13T13:48:27.245Z,23.52
2023-01-13T13:51:02.786Z,21.92
2023-01-13T13:53:36.142Z,20.90
2023-01-13T13:56:07.511Z,21.70
2023-01-13T13:58:37.031Z,20.85
2023-01-13T14:01:05.420Z,20.67
2023-01-13T14:03:35.367Z,20.50
2023-01-13T14:06:06.622Z,24.15
2023-01-13T14:08:35.730Z,26.15
2023-01-13T14:11:16.347Z,20.23
2023-01-13T14:13:43.129Z,18.23
2023-01-13T14:16:13.010Z,23.20
2023-01-13T14:18:47.180Z,21.52
2023-01-13T14:21:29.930Z,19.83
2023-01-13T14:24:14.042Z,18.80
2023-01-13T14:26:41.004Z,18.92
2023-01-13T14:31:52.644Z,18.20
2023-01-13T14:34:32.345Z,21.73
2023-01-13T14:37:00.845Z,21.42
2023-01-13T14:39:40.688Z,18.92
2023-01-13T14:42:16.308Z,18.27
2023-01-13T14:44:48.543Z,20.15
2023-01-13T14:47:22.952Z,19.15
2023-01-13T14:50:06.783Z,22.52
2023-01-13T14:52:36.804Z,20.17
2023-01-13T14:55:10.071Z,19.10
2023-01-13T15:00:15.362Z,20.55
2023-01-13T15:03:00.072Z,22.52
2023-01-13T15:05:26.846Z,23.85
2023-01-13T15:07:57.520Z,20.67
2023-01-13T15:10:33.537Z,18.85
2023-01-13T15:13:03.674Z,23.00
2023-01-13T15:15:33.870Z,20.00
2023-01-13T15:18:21.906Z,17.92
2023-01-13T15:20:50.846Z,21.60
2023-01-13T15:23:19.050Z,21.90
2023-01-13T15:25:46.638Z,18.33
2023-01-13T15:28:27.574Z,18.65
2023-01-13T15:30:58.182Z,20.65
2023-01-13T15:33:25.043Z,16.70
2023-01-13T15:35:53.390Z,20.58
2023-01-13T15:38:22.634Z,17.10
2023-01-13T15:40:51.161Z,24.58
2023-01-13T15:43:42.489Z,16.85
2023-01-13T15:46:37.043Z,17.55
2023-01-13T15:49:29.917Z,19.83
2023-01-13T15:51:56.712Z,16.70
2023-01-13T15:54:24.689Z,21.50
2023-01-13T15:56:52.380Z,18.00
2023-01-13T15:59:23.330Z,20.60
2023-01-13T16:01:50.140Z,23.48
2023-01-13T16:06:44.538Z,22.02
2023-01-13T16:09:15.306Z,20.27
2023-01-13T16:11:42.105Z,20.33
2023-01-13T16:14:08.976Z,22.40
2023-01-13T16:19:02.822Z,22.20
2023-01-13T16:21:29.598Z,21.52
2023-01-13T16:23:56.432Z,26.23
2023-01-13T16:26:26.579Z,22.55
2023-01-13T16:28:55.506Z,21.40
2023-01-13T16:31:32.055Z,21.02
2023-01-13T16:34:00.880Z,22.08
2023-01-13T16:36:29.230Z,26.80
2023-01-13T16:38:57.514Z,24.02
2023-01-13T16:41:27.426Z,24.05
2023-01-13T16:43:54.283Z,29.25
2023-01-13T16:46:29.057Z,30.08
2023-01-13T16:49:01.701Z,27.90
2023-01-13T16:51:28.529Z,27.23
2023-01-13T16:53:55.356Z,24.52
2023-01-13T16:56:30.540Z,29.20
2023-01-13T16:58:59.813Z,40.47
2023-01-13T17:01:29.383Z,38.88
2023-01-13T17:03:57.314Z,34.08
2023-01-13T17:06:35.984Z,38.50
2023-01-13T17:09:07.952Z,37.78
2023-01-13T17:11:35.003Z,40.35
2023-01-13T17:14:18.440Z,37.42
2023-01-13T17:16:46.934Z,43.50
2023-01-13T17:19:14.206Z,40.30
2023-01-13T17:21:41.137Z,36.53
2023-01-13T17:26:43.915Z,39.08
2023-01-13T17:29:14.906Z,36.15
2023-01-13T17:31:42.144Z,36.72
2023-01-13T17:34:10.970Z,35.72
2023-01-13T17:36:37.817Z,34.53
2023-01-13T17:39:05.110Z,34.88
2023-01-13T17:41:31.999Z,38.03
2023-01-13T17:43:58.750Z,41.88
2023-01-13T17:46:25.613Z,32.67
2023-01-13T17:48:53.670Z,30.63
2023-01-13T17:51:22.636Z,32.25
2023-01-13T17:53:49.476Z,30.13
2023-01-13T17:56:17.258Z,31.27
2023-01-13T17:58:46.751Z,27.40
2023-01-13T18:01:26.590Z,25.88
2023-01-13T18:03:53.462Z,29.80
2023-01-13T18:06:23.128Z,31.13
2023-01-13T18:08:50.529Z,25.73
2023-01-13T18:11:19.851Z,23.60
2023-01-13T18:13:54.854Z,23.55
2023-01-13T18:16:21.920Z,26.80
2023-01-13T18:18:51.884Z,29.88
2023-01-13T18:21:42.638Z,30.42
2023-01-13T18:24:36.771Z,28.35
2023-01-13T18:27:18.784Z,28.60
2023-01-13T18:29:46.220Z,26.88
2023-01-13T18:32:13.379Z,25.80
2023-01-13T18:34:40.102Z,25.10
2023-01-13T18:37:08.929Z,28.90
2023-01-13T18:39:37.409Z,26.13
2023-01-13T18:42:34.708Z,28.52
2023-01-13T18:45:01.482Z,25.63
2023-01-13T18:47:30.400Z,25.95
2023-01-13T18:49:57.858Z,25.27
2023-01-13T18:52:25.338Z,31.10
2023-01-13T18:54:53.030Z,42.30
2023-01-13T18:57:21.443Z,34.58
2023-01-13T18:59:48.413Z,36.78
2023-01-13T19:02:18.436Z,33.63
2023-01-13T19:04:47.237Z,35.97
2023-01-13T19:07:21.912Z,32.67
2023-01-13T19:09:50.020Z,38.38
2023-01-13T19:12:25.770Z,36.95
2023-01-13T19:14:54.485Z,38.30
2023-01-13T19:17:22.753Z,42.10
2023-01-13T19:19:52.825Z,46.15
2023-01-13T19:22:29.780Z,38.28
2023-01-13T19:25:00.449Z,45.50
2023-01-13T19:27:27.795Z,42.55
2023-01-13T19:29:58.146Z,44.95
2023-01-13T19:32:25.181Z,43.53
2023-01-13T19:34:53.164Z,41.90
2023-01-13T19:37:19.967Z,37.78
2023-01-13T19:39:47.197Z,40.75
2023-01-13T19:42:32.939Z,41.40
2023-01-13T19:45:18.286Z,39.13
2023-01-13T19:47:45.943Z,36.35
2023-01-13T19:50:13.730Z,37.88
2023-01-13T19:52:43.634Z,40.15
2023-01-13T19:55:12.403Z,38.63
2023-01-13T19:57:40.189Z,35.72
2023-01-13T20:00:08.928Z,33.35
2023-01-13T20:02:36.975Z,34.42
2023-01-13T20:05:06.743Z,32.95
2023-01-13T20:07:35.063Z,34.05
2023-01-13T20:10:02.066Z,31.40
2023-01-13T20:12:29.606Z,33.33
2023-01-13T20:14:56.772Z,33.83
2023-01-13T20:19:52.468Z,36.35
2023-01-13T20:22:19.192Z,27.63
2023-01-13T20:24:46.082Z,34.72
2023-01-13T20:27:12.880Z,32.25
2023-01-13T20:29:39.692Z,33.30
2023-01-13T20:32:06.565Z,33.55
2023-01-13T20:34:33.621Z,33.47
2023-01-13T20:37:00.561Z,29.35
2023-01-13T20:39:28.023Z,30.80
2023-01-13T20:42:14.006Z,32.05
